createdAt,value
2024-02-29T00:00:38.347Z,41.63
2024-02-29T00:03:41.799Z,37.00
2024-02-29T00:06:45.828Z,43.08
2024-02-29T00:09:49.287Z,37.88
2024-02-29T00:12:52.756Z,41.80
2024-02-29T00:15:56.279Z,42.03
2024-02-29T00:18:59.789Z,42.90
2024-02-29T00:22:03.318Z,42.10
2024-02-29T00:25:07.305Z,66.53
2024-02-29T00:28:10.895Z,61.40
2024-02-29T00:31:14.434Z,83.63
2024-02-29T00:34:18.002Z,80.72
2024-02-29T00:37:21.561Z,61.20
2024-02-29T00:40:25.183Z,57.92
2024-02-29T00:43:28.601Z,49.95
2024-02-29T00:46:32.032Z,49.93
2024-02-29T00:49:36.297Z,49.10
2024-02-29T00:52:39.976Z,47.05
2024-02-29T00:55:44.317Z,51.22
2024-02-29T00:58:47.713Z,50.10
2024-02-29T01:01:51.264Z,54.80
2024-02-29T01:04:54.803Z,50.25
2024-02-29T01:07:58.245Z,52.47
2024-02-29T01:11:01.739Z,47.20
2024-02-29T01:14:05.795Z,49.72
2024-02-29T01:17:09.161Z,68.80
2024-02-29T01:20:12.768Z,84.97
2024-02-29T01:23:16.272Z,74.20
2024-02-29T01:26:19.666Z,75.75
2024-02-29T01:29:23.945Z,73.45
2024-02-29T01:32:29.882Z,70.57
2024-02-29T01:35:34.474Z,63.53
2024-02-29T01:38:37.850Z,68.47
2024-02-29T01:41:41.756Z,66.75
2024-02-29T01:44:58.033Z,61.58
2024-02-29T01:48:01.435Z,76.40
2024-02-29T01:51:06.641Z,81.78
2024-02-29T01:54:10.595Z,87.90
2024-02-29T01:57:14.601Z,83.68
2024-02-29T02:00:18.342Z,76.22
2024-02-29T02:03:22.392Z,67.10
2024-02-29T02:06:26.007Z,61.17
2024-02-29T02:09:30.291Z,52.97
2024-02-29T02:12:33.893Z,56.75
2024-02-29T02:15:37.374Z,55.15
2024-02-29T02:18:40.945Z,55.03
2024-02-29T02:21:44.713Z,61.17
2024-02-29T02:24:48.196Z,56.42
2024-02-29T02:27:51.689Z,53.65
2024-02-29T02:30:55.436Z,50.45
2024-02-29T02:33:59.387Z,39.23
2024-02-29T02:37:02.879Z,48.72
2024-02-29T02:40:07.556Z,40.45
2024-02-29T02:43:11.089Z,49.85
2024-02-29T02:46:14.805Z,41.38
2024-02-29T02:49:18.194Z,42.17
2024-02-29T02:52:21.908Z,55.40
2024-02-29T02:55:25.526Z,50.70
2024-02-29T02:58:28.888Z,57.33
2024-02-29T03:01:32.255Z,57.90
2024-02-29T03:04:35.640Z,43.07
2024-02-29T03:07:39.965Z,50.55
2024-02-29T03:10:43.548Z,47.10
2024-02-29T03:13:47.117Z,48.88
2024-02-29T03:16:50.467Z,43.20
2024-02-29T03:20:14.519Z,42.67
2024-02-29T03:23:19.294Z,44.10
2024-02-29T03:26:22.718Z,39.97
2024-02-29T03:29:26.191Z,37.00
2024-02-29T03:32:29.772Z,35.53
2024-02-29T03:35:33.131Z,38.27
2024-02-29T03:38:41.397Z,39.60
2024-02-29T03:41:44.752Z,40.25
2024-02-29T03:44:48.158Z,39.30
2024-02-29T03:47:51.544Z,41.30
2024-02-29T03:50:54.951Z,40.43
2024-02-29T03:53:58.475Z,37.72
2024-02-29T03:57:02.258Z,42.60
2024-02-29T04:00:12.280Z,40.67
2024-02-29T04:03:16.190Z,42.95
2024-02-29T04:06:19.789Z,42.50
2024-02-29T04:09:23.196Z,42.42
2024-02-29T04:12:26.877Z,40.92
2024-02-29T04:15:30.254Z,37.80
2024-02-29T04:18:33.704Z,38.97
2024-02-29T04:21:37.200Z,41.00
2024-02-29T04:24:40.754Z,35.75
2024-02-29T04:27:44.406Z,43.20
2024-02-29T04:30:47.849Z,45.17
2024-02-29T04:33:52.275Z,48.20
2024-02-29T04:36:55.782Z,44.97
2024-02-29T04:39:59.195Z,43.55
2024-02-29T04:43:03.099Z,43.83
2024-02-29T04:46:06.699Z,42.45
2024-02-29T04:49:10.358Z,40.65
2024-02-29T04:52:13.881Z,40.10
2024-02-29T04:55:17.382Z,41.28
2024-02-29T04:58:20.905Z,40.55
2024-02-29T05:01:24.529Z,40.95
2024-02-29T05:04:28.045Z,44.15
2024-02-29T05:07:32.191Z,40.10
2024-02-29T05:10:35.545Z,40.33
2024-02-29T05:13:39.006Z,47.83
2024-02-29T05:16:42.509Z,43.72
2024-02-29T05:19:46.185Z,43.60
2024-02-29T05:22:54.812Z,43.07
2024-02-29T05:25:58.554Z,39.50
2024-02-29T05:29:01.944Z,53.13
2024-02-29T05:32:05.627Z,52.10
2024-02-29T05:35:09.503Z,64.85
2024-02-29T05:38:12.894Z,58.80
2024-02-29T05:41:16.293Z,55.58
2024-02-29T05:44:20.580Z,72.35
2024-02-29T05:47:23.962Z,117.15
2024-02-29T05:50:29.912Z,67.45
2024-02-29T05:53:34.692Z,58.53
2024-02-29T05:56:38.358Z,64.13
2024-02-29T05:59:41.949Z,63.10
2024-02-29T06:02:46.251Z,57.20
2024-02-29T06:05:50.471Z,59.97
2024-02-29T06:08:53.851Z,56.03
2024-02-29T06:11:57.196Z,69.35
2024-02-29T06:15:00.601Z,91.90
2024-02-29T06:18:04.147Z,85.22
2024-02-29T06:21:07.649Z,73.53
2024-02-29T06:24:11.057Z,65.50
2024-02-29T06:27:18.014Z,67.28
2024-02-29T06:30:21.699Z,50.78
2024-02-29T06:33:26.113Z,55.67
2024-02-29T06:36:29.580Z,54.40
2024-02-29T06:39:32.977Z,55.60
2024-02-29T06:42:36.574Z,54.42
2024-02-29T06:45:50.747Z,78.45
2024-02-29T06:48:54.192Z,89.28
2024-02-29T06:51:58.014Z,86.80
2024-02-29T06:55:01.560Z,59.97
2024-02-29T06:58:06.710Z,51.15
2024-02-29T07:01:11.001Z,48.80
2024-02-29T07:04:14.725Z,48.17
2024-02-29T07:07:19.525Z,47.08
2024-02-29T07:10:24.330Z,46.70
2024-02-29T07:13:28.189Z,44.85
2024-02-29T07:16:34.093Z,49.42
2024-02-29T07:19:57.969Z,47.72
2024-02-29T07:23:04.096Z,39.90
2024-02-29T07:26:09.085Z,38.13
2024-02-29T07:29:12.921Z,36.55
2024-02-29T07:32:16.372Z,32.03
2024-02-29T07:35:19.792Z,33.03
2024-02-29T07:38:23.280Z,31.75
2024-02-29T07:41:27.560Z,33.47
2024-02-29T07:44:31.005Z,31.70
2024-02-29T07:47:35.017Z,32.92
2024-02-29T07:50:38.868Z,30.98
2024-02-29T07:53:42.407Z,34.78
2024-02-29T07:56:47.227Z,28.10
2024-02-29T07:59:50.746Z,30.30
2024-02-29T08:02:54.171Z,31.48
2024-02-29T08:05:58.201Z,31.00
2024-02-29T08:09:01.565Z,31.02
2024-02-29T08:12:05.360Z,31.97
2024-02-29T08:15:09.360Z,30.05
2024-02-29T08:18:15.886Z,30.73
2024-02-29T08:21:19.278Z,34.63
2024-02-29T08:24:22.726Z,34.17
2024-02-29T08:27:27.210Z,35.60
2024-02-29T08:30:30.672Z,30.67
2024-02-29T08:33:34.149Z,36.20
2024-02-29T08:36:37.634Z,32.03
2024-02-29T08:39:42.514Z,32.30
2024-02-29T08:42:46.361Z,36.67
2024-02-29T08:45:51.292Z,35.58
2024-02-29T08:48:54.909Z,28.90
2024-02-29T08:51:58.646Z,33.53
2024-02-29T08:55:02.776Z,33.63
2024-02-29T08:58:06.687Z,29.23
2024-02-29T09:01:11.014Z,27.63
2024-02-29T09:04:14.929Z,32.85
2024-02-29T09:07:18.502Z,29.27
2024-02-29T09:10:28.876Z,29.35
2024-02-29T09:13:35.825Z,32.40
2024-02-29T09:16:39.785Z,34.30
2024-02-29T09:19:43.454Z,30.40
2024-02-29T09:22:46.883Z,30.27
2024-02-29T09:25:50.983Z,32.65
2024-02-29T09:28:54.517Z,34.90
2024-02-29T09:31:57.999Z,29.43
2024-02-29T09:35:01.467Z,27.73
2024-02-29T09:38:06.071Z,26.85
2024-02-29T09:41:31.793Z,30.38
2024-02-29T09:44:38.653Z,35.50
2024-02-29T09:47:42.496Z,29.80
2024-02-29T09:50:45.995Z,29.43
2024-02-29T09:53:53.338Z,27.80
2024-02-29T09:56:56.999Z,31.48
2024-02-29T10:00:02.456Z,29.00
2024-02-29T10:03:13.083Z,28.33
2024-02-29T10:06:16.848Z,26.93
2024-02-29T10:09:22.296Z,28.13
2024-02-29T10:12:25.884Z,29.20
2024-02-29T10:15:29.824Z,29.70
2024-02-29T10:18:40.037Z,32.10
2024-02-29T10:21:44.908Z,32.77
2024-02-29T10:24:52.145Z,29.65
2024-02-29T10:28:04.286Z,31.42
2024-02-29T10:31:08.509Z,30.15
2024-02-29T10:34:15.069Z,28.70
2024-02-29T10:37:18.732Z,34.47
2024-02-29T10:40:25.905Z,32.13
2024-02-29T10:43:34.280Z,32.38
2024-02-29T10:46:42.894Z,30.10
2024-02-29T10:49:48.410Z,31.00
2024-02-29T10:53:06.759Z,29.03
2024-02-29T10:56:28.793Z,28.17
2024-02-29T10:59:33.136Z,28.00
2024-02-29T11:02:59.693Z,27.27
2024-02-29T11:06:04.463Z,26.17
2024-02-29T11:09:11.697Z,28.73
2024-02-29T11:12:19.258Z,24.50
2024-02-29T11:15:27.229Z,26.27
2024-02-29T11:18:31.921Z,32.05
2024-02-29T11:21:35.974Z,26.23
2024-02-29T11:24:41.999Z,27.40
2024-02-29T11:27:51.949Z,31.30
2024-02-29T11:30:55.749Z,29.55
2024-02-29T11:34:01.846Z,25.73
2024-02-29T11:37:08.504Z,30.63
2024-02-29T11:40:21.457Z,28.43
2024-02-29T11:43:26.287Z,30.10
2024-02-29T11:46:30.126Z,27.33
2024-02-29T11:49:35.182Z,29.58
2024-02-29T11:52:38.688Z,28.30
2024-02-29T11:55:43.111Z,26.23
2024-02-29T11:58:50.179Z,27.67
2024-02-29T12:01:54.764Z,26.67
2024-02-29T12:04:59.555Z,25.63
2024-02-29T12:08:04.225Z,33.20
2024-02-29T12:11:08.776Z,21.93
2024-02-29T12:14:13.168Z,29.42
2024-02-29T12:17:17.987Z,25.83
2024-02-29T12:20:23.332Z,30.33
2024-02-29T12:23:34.917Z,30.70
2024-02-29T12:26:40.274Z,28.07
2024-02-29T12:29:43.925Z,33.22
2024-02-29T12:32:50.394Z,43.47
2024-02-29T12:35:53.885Z,26.95
2024-02-29T12:38:57.308Z,24.80
2024-02-29T12:42:00.712Z,34.03
2024-02-29T12:45:04.956Z,29.38
2024-02-29T12:48:08.627Z,30.42
2024-02-29T12:51:12.516Z,25.67
2024-02-29T12:54:16.211Z,26.70
2024-02-29T12:57:20.029Z,27.57
2024-02-29T13:00:25.450Z,26.65
2024-02-29T13:03:29.328Z,28.75
2024-02-29T13:06:32.903Z,23.08
2024-02-29T13:09:36.376Z,27.60
2024-02-29T13:12:45.446Z,29.03
2024-02-29T13:15:54.289Z,24.55
2024-02-29T13:18:59.584Z,27.77
2024-02-29T13:22:03.697Z,23.83
2024-02-29T13:25:08.297Z,21.53
2024-02-29T13:28:12.896Z,27.53
2024-02-29T13:31:16.632Z,26.75
2024-02-29T13:34:20.295Z,27.77
2024-02-29T13:37:24.565Z,23.27
2024-02-29T13:40:28.285Z,27.60
2024-02-29T13:43:32.023Z,25.40
2024-02-29T13:46:35.666Z,20.13
2024-02-29T13:49:39.157Z,24.40
2024-02-29T13:52:45.695Z,22.58
2024-02-29T13:55:49.180Z,26.10
2024-02-29T13:58:54.031Z,23.27
2024-02-29T14:01:57.642Z,23.58
2024-02-29T14:05:01.430Z,25.05
2024-02-29T14:08:05.310Z,46.03
2024-02-29T14:11:08.838Z,108.33
2024-02-29T14:14:13.156Z,35.33
2024-02-29T14:17:16.651Z,24.77
2024-02-29T14:20:21.970Z,24.83
2024-02-29T14:23:25.747Z,24.33
2024-02-29T14:26:29.346Z,25.97
2024-02-29T14:29:32.837Z,24.30
2024-02-29T14:32:37.626Z,27.17
2024-02-29T14:35:41.493Z,35.08
2024-02-29T14:38:45.197Z,30.65
2024-02-29T14:41:49.267Z,18.90
2024-02-29T14:44:53.065Z,22.17
2024-02-29T14:47:56.986Z,23.30
2024-02-29T14:51:01.889Z,24.20
2024-02-29T14:54:05.776Z,24.08
2024-02-29T14:57:09.406Z,23.47
2024-02-29T15:00:13.535Z,22.17
2024-02-29T15:03:18.342Z,24.98
2024-02-29T15:06:22.127Z,30.77
2024-02-29T15:09:25.745Z,22.65
2024-02-29T15:12:29.379Z,17.93
2024-02-29T15:15:32.992Z,21.33
2024-02-29T15:18:36.671Z,23.10
2024-02-29T15:21:41.172Z,22.33
2024-02-29T15:24:44.851Z,26.50
2024-02-29T15:27:54.889Z,37.70
2024-02-29T15:30:58.529Z,50.60
2024-02-29T15:34:02.334Z,38.65
2024-02-29T15:37:05.908Z,27.42
2024-02-29T15:40:09.861Z,26.35
2024-02-29T15:43:14.400Z,29.10
2024-02-29T15:46:19.073Z,25.63
2024-02-29T15:49:22.718Z,46.20
2024-02-29T15:52:26.678Z,56.53
2024-02-29T15:55:30.111Z,67.68
2024-02-29T15:58:33.939Z,84.83
2024-02-29T16:01:41.426Z,127.13
2024-02-29T16:04:45.300Z,58.72
2024-02-29T16:07:48.736Z,37.40
2024-02-29T16:10:52.330Z,31.08
2024-02-29T16:13:55.846Z,40.23
2024-02-29T16:16:59.262Z,34.57
2024-02-29T16:20:03.028Z,34.75
2024-02-29T16:23:06.450Z,33.08
2024-02-29T16:26:10.712Z,37.28
2024-02-29T16:29:14.286Z,42.50
2024-02-29T16:32:18.043Z,50.40
2024-02-29T16:35:23.816Z,39.92
2024-02-29T16:38:27.646Z,48.28
2024-02-29T16:41:51.692Z,54.28
2024-02-29T16:44:56.560Z,62.87
2024-02-29T16:48:00.709Z,104.83
2024-02-29T16:51:05.750Z,59.00
2024-02-29T16:54:09.339Z,57.53
2024-02-29T16:57:13.062Z,54.20
2024-02-29T17:00:19.280Z,55.17
2024-02-29T17:03:23.132Z,47.63
2024-02-29T17:06:27.497Z,52.53
2024-02-29T17:09:31.298Z,53.33
2024-02-29T17:12:34.747Z,36.28
2024-02-29T17:15:38.636Z,61.17
2024-02-29T17:18:43.040Z,60.87
2024-02-29T17:21:47.620Z,55.83
2024-02-29T17:24:51.147Z,37.28
2024-02-29T17:27:57.261Z,36.15
2024-02-29T17:31:01.239Z,30.07
2024-02-29T17:34:04.914Z,32.03
2024-02-29T17:37:09.387Z,32.10
2024-02-29T17:40:13.530Z,34.25
2024-02-29T17:43:18.557Z,45.13
2024-02-29T17:46:22.490Z,62.80
2024-02-29T17:49:26.253Z,44.33
2024-02-29T17:52:29.906Z,34.65
2024-02-29T17:55:33.767Z,40.50
2024-02-29T17:58:37.421Z,52.78
2024-02-29T18:01:41.265Z,48.37
2024-02-29T18:04:44.776Z,41.53
2024-02-29T18:07:55.530Z,38.20
2024-02-29T18:11:03.064Z,41.00
2024-02-29T18:14:06.495Z,41.17
2024-02-29T18:17:10.387Z,35.83
2024-02-29T18:20:18.409Z,39.47
2024-02-29T18:23:23.955Z,42.13
2024-02-29T18:26:27.554Z,46.47
2024-02-29T18:29:30.993Z,45.78
2024-02-29T18:32:34.769Z,47.80
2024-02-29T18:35:39.209Z,49.90
2024-02-29T18:38:42.917Z,42.40
2024-02-29T18:41:46.742Z,44.25
2024-02-29T18:44:50.511Z,42.20
2024-02-29T18:47:54.278Z,44.27
2024-02-29T18:50:58.055Z,44.03
2024-02-29T18:54:01.756Z,39.53
2024-02-29T18:57:05.380Z,78.57
2024-02-29T19:00:09.832Z,81.63
2024-02-29T19:03:13.985Z,32.03
2024-02-29T19:06:18.006Z,42.27
2024-02-29T19:09:22.714Z,29.63
2024-02-29T19:12:27.374Z,29.02
2024-02-29T19:15:30.946Z,34.95
2024-02-29T19:18:35.832Z,41.57
2024-02-29T19:21:39.879Z,39.13
2024-02-29T19:24:43.598Z,75.95
2024-02-29T19:27:47.782Z,52.22
2024-02-29T19:30:51.441Z,39.22
2024-02-29T19:33:55.042Z,53.37
2024-02-29T19:36:58.792Z,42.57
2024-02-29T19:40:02.554Z,43.45
2024-02-29T19:43:06.295Z,45.90
2024-02-29T19:46:09.728Z,39.75
2024-02-29T19:49:13.663Z,45.27
2024-02-29T19:52:17.834Z,75.13
2024-02-29T19:55:21.765Z,41.95
2024-02-29T19:58:25.529Z,43.80
2024-02-29T20:01:29.687Z,40.80
2024-02-29T20:04:33.459Z,50.53
2024-02-29T20:07:37.564Z,57.83
2024-02-29T20:10:42.269Z,51.17
2024-02-29T20:13:46.538Z,39.92
2024-02-29T20:16:50.044Z,39.03
2024-02-29T20:19:53.508Z,42.23
2024-02-29T20:23:00.293Z,40.53
2024-02-29T20:26:04.123Z,40.63
2024-02-29T20:29:07.895Z,40.08
2024-02-29T20:32:14.940Z,36.65
2024-02-29T20:35:18.753Z,35.83
2024-02-29T20:38:22.159Z,42.77
2024-02-29T20:41:25.671Z,40.25
2024-02-29T20:44:29.126Z,38.40
2024-02-29T20:47:33.316Z,41.08
2024-02-29T20:50:36.764Z,36.97
2024-02-29T20:53:40.355Z,39.57
2024-02-29T20:57:03.809Z,42.78
2024-02-29T21:00:10.757Z,37.72
2024-02-29T21:03:14.552Z,40.65
2024-02-29T21:06:19.636Z,38.50
2024-02-29T21:09:23.427Z,44.00
2024-02-29T21:12:27.033Z,39.50
2024-02-29T21:15:32.753Z,38.65
2024-02-29T21:18:36.366Z,40.30
2024-02-29T21:21:41.725Z,33.83
2024-02-29T21:24:46.486Z,35.87
2024-02-29T21:27:49.923Z,41.70
2024-02-29T21:30:53.443Z,37.78
2024-02-29T21:33:56.933Z,35.67
2024-02-29T21:37:00.621Z,34.17
2024-02-29T21:40:04.978Z,33.37
2024-02-29T21:43:08.619Z,30.73
2024-02-29T21:46:13.416Z,34.95
2024-02-29T21:49:17.729Z,33.35
2024-02-29T21:52:21.160Z,28.40
2024-02-29T21:55:24.625Z,29.07
2024-02-29T21:58:29.935Z,29.05
2024-02-29T22:01:33.390Z,27.88
2024-02-29T22:04:37.080Z,26.98
2024-02-29T22:07:41.237Z,28.83
2024-02-29T22:10:46.639Z,28.90
2024-02-29T22:13:50.985Z,33.42
2024-02-29T22:16:55.580Z,32.20
2024-02-29T22:19:58.960Z,29.48
2024-02-29T22:23:02.587Z,34.97
2024-02-29T22:26:06.047Z,27.90
2024-02-29T22:29:10.224Z,28.70
2024-02-29T22:32:13.672Z,28.58
2024-02-29T22:35:19.136Z,29.08
2024-02-29T22:38:22.983Z,29.40
2024-02-29T22:41:26.358Z,28.77
2024-02-29T22:44:29.801Z,32.13
2024-02-29T22:47:33.389Z,33.15
2024-02-29T22:50:36.817Z,29.90
2024-02-29T22:53:40.286Z,28.50
2024-02-29T22:56:43.986Z,34.00
2024-02-29T22:59:47.670Z,33.83
2024-02-29T23:02:51.886Z,29.48
2024-02-29T23:05:56.273Z,28.45
2024-02-29T23:08:59.654Z,27.93
2024-02-29T23:12:03.444Z,26.17
2024-02-29T23:15:08.126Z,27.02
2024-02-29T23:18:11.619Z,27.85
2024-02-29T23:21:15.175Z,28.88
2024-02-29T23:24:18.517Z,27.07
2024-02-29T23:27:21.897Z,28.43
2024-02-29T23:30:25.374Z,28.77
2024-02-29T23:33:28.760Z,32.85
2024-02-29T23:36:32.227Z,29.60
2024-02-29T23:39:36.114Z,31.07
2024-02-29T23:42:39.565Z,30.87
2024-02-29T23:45:43.041Z,28.08
2024-02-29T23:48:46.930Z,34.22
2024-02-29T23:51:50.392Z,28.80
2024-02-29T23:54:53.992Z,34.93
2024-02-29T23:57:57.397Z,30.53
